createdAt,value
2018-06-22T00:00:45.393Z,1021.27
2018-06-22T00:01:45.375Z,1021.25
2018-06-22T00:02:45.356Z,1021.27
2018-06-22T00:03:45.339Z,1021.20
2018-06-22T00:04:45.320Z,1021.25
2018-06-22T00:05:45.362Z,1021.25
2018-06-22T00:06:45.301Z,1021.21
2018-06-22T00:07:45.263Z,1021.20
2018-06-22T00:08:45.252Z,1021.19
2018-06-22T00:09:45.230Z,1021.20
2018-06-22T00:10:45.215Z,1021.17
2018-06-22T00:11:45.218Z,1021.19
2018-06-22T00:12:45.218Z,1021.21
2018-06-22T00:13:45.167Z,1021.18
2018-06-22T00:14:45.148Z,1021.19
2018-06-22T00:15:45.135Z,1021.15
2018-06-22T00:16:45.117Z,1021.21
2018-06-22T00:17:45.106Z,1021.21
2018-06-22T00:18:45.103Z,1021.23
2018-06-22T00:19:45.068Z,1021.19
2018-06-22T00:20:45.055Z,1021.19
2018-06-22T00:21:45.038Z,1021.18
2018-06-22T00:22:45.044Z,1021.14
2018-06-22T00:23:45.013Z,1021.18
2018-06-22T00:24:44.986Z,1021.18
2018-06-22T00:25:44.986Z,1021.16
2018-06-22T00:26:44.953Z,1021.17
2018-06-22T00:27:44.943Z,1021.16
2018-06-22T00:28:44.941Z,1021.17
2018-06-22T00:29:44.916Z,1021.16
2018-06-22T00:30:44.896Z,1021.15
2018-06-22T00:31:44.880Z,1021.08
2018-06-22T00:32:44.874Z,1021.12
2018-06-22T00:33:44.845Z,1021.09
2018-06-22T00:34:44.852Z,1021.03
2018-06-22T00:35:44.816Z,1021.08
2018-06-22T00:36:44.803Z,1021.06
2018-06-22T00:37:44.779Z,1021.08
2018-06-22T00:38:44.772Z,1021.10
2018-06-22T00:39:44.764Z,1021.06
2018-06-22T00:40:44.746Z,1021.06
2018-06-22T00:41:44.736Z,1020.97
2018-06-22T00:42:44.697Z,1020.97
2018-06-22T00:43:44.688Z,1020.97
2018-06-22T00:44:44.695Z,1020.96
2018-06-22T00:45:44.649Z,1020.93
2018-06-22T00:46:44.784Z,1020.92
2018-06-22T00:47:44.622Z,1020.90
2018-06-22T00:48:44.627Z,1020.93
2018-06-22T00:49:44.593Z,1020.91
2018-06-22T00:50:44.599Z,1020.87
2018-06-22T00:51:44.632Z,1020.85
2018-06-22T00:52:44.552Z,1020.92
2018-06-22T00:53:44.536Z,1020.90
2018-06-22T00:54:44.512Z,1020.87
2018-06-22T00:55:44.520Z,1020.86
2018-06-22T00:56:44.494Z,1020.87
2018-06-22T00:57:44.457Z,1020.88
2018-06-22T00:58:44.441Z,1020.89
2018-06-22T00:59:44.445Z,1020.88
2018-06-22T01:00:44.415Z,1020.88
2018-06-22T01:01:44.417Z,1020.89
2018-06-22T01:02:44.413Z,1020.81
2018-06-22T01:03:44.375Z,1020.92
2018-06-22T01:04:44.350Z,1020.85
2018-06-22T01:05:44.331Z,1020.91
2018-06-22T01:06:44.314Z,1020.92
2018-06-22T01:07:44.331Z,1020.87
2018-06-22T01:08:44.293Z,1020.89
2018-06-22T01:09:44.275Z,1020.88
2018-06-22T01:10:44.265Z,1020.86
2018-06-22T01:11:44.234Z,1020.87
2018-06-22T01:12:44.240Z,1020.85
2018-06-22T01:13:44.204Z,1020.86
2018-06-22T01:14:44.190Z,1020.86
2018-06-22T01:15:44.172Z,1020.88
2018-06-22T01:16:44.157Z,1020.86
2018-06-22T01:17:44.137Z,1020.86
2018-06-22T01:18:44.135Z,1020.89
2018-06-22T01:19:44.105Z,1020.86
2018-06-22T01:20:44.112Z,1020.93
2018-06-22T01:21:44.079Z,1020.86
2018-06-22T01:22:44.062Z,1020.85
2018-06-22T01:23:44.055Z,1020.86
2018-06-22T01:24:44.041Z,1020.88
2018-06-22T01:25:44.006Z,1020.86
2018-06-22T01:26:43.992Z,1020.85
2018-06-22T01:27:43.981Z,1020.82
2018-06-22T01:28:43.960Z,1020.81
2018-06-22T01:29:43.957Z,1020.83
2018-06-22T01:30:43.932Z,1020.80
2018-06-22T01:31:43.915Z,1020.80
2018-06-22T01:32:43.894Z,1020.85
2018-06-22T01:33:43.877Z,1020.83
2018-06-22T01:34:43.861Z,1020.87
2018-06-22T01:35:43.865Z,1020.87
2018-06-22T01:36:43.846Z,1020.80
2018-06-22T01:37:43.826Z,1020.82
2018-06-22T01:38:43.792Z,1020.82
2018-06-22T01:39:43.784Z,1020.79
2018-06-22T01:40:43.770Z,1020.82
2018-06-22T01:41:43.749Z,1020.83
2018-06-22T01:42:43.754Z,1020.84
2018-06-22T01:43:43.718Z,1020.77
2018-06-22T01:44:43.699Z,1020.73
2018-06-22T01:45:43.677Z,1020.76
2018-06-22T01:46:43.681Z,1020.80
2018-06-22T01:47:43.661Z,1020.80
2018-06-22T01:48:43.653Z,1020.78
2018-06-22T01:49:43.613Z,1020.71
2018-06-22T01:50:43.609Z,1020.73
2018-06-22T01:51:43.589Z,1020.74
2018-06-22T01:52:43.577Z,1020.72
2018-06-22T01:53:43.568Z,1020.74
2018-06-22T01:54:43.542Z,1020.77
2018-06-22T01:55:43.539Z,1020.75
2018-06-22T01:56:43.504Z,1020.75
2018-06-22T01:57:43.487Z,1020.76
2018-06-22T01:58:43.497Z,1020.69
2018-06-22T01:59:43.452Z,1020.69
2018-06-22T02:00:43.435Z,1020.71
2018-06-22T02:01:43.418Z,1020.71
2018-06-22T02:02:43.447Z,1020.64
2018-06-22T02:03:43.395Z,1020.68
2018-06-22T02:04:43.394Z,1020.67
2018-06-22T02:05:43.360Z,1020.64
2018-06-22T02:06:43.345Z,1020.65
2018-06-22T02:07:43.336Z,1020.67
2018-06-22T02:08:43.331Z,1020.66
2018-06-22T02:09:43.306Z,1020.72
2018-06-22T02:10:43.270Z,1020.72
2018-06-22T02:11:43.266Z,1020.66
2018-06-22T02:12:43.263Z,1020.63
2018-06-22T02:13:43.232Z,1020.60
2018-06-22T02:14:43.204Z,1020.58
2018-06-22T02:15:43.213Z,1020.68
2018-06-22T02:16:43.188Z,1020.61
2018-06-22T02:17:43.165Z,1020.69
2018-06-22T02:18:43.144Z,1020.67
2018-06-22T02:19:43.123Z,1020.70
2018-06-22T02:20:43.130Z,1020.68
2018-06-22T02:21:43.105Z,1020.68
2018-06-22T02:22:43.078Z,1020.70
2018-06-22T02:23:43.087Z,1020.66
2018-06-22T02:24:43.045Z,1020.70
2018-06-22T02:25:43.048Z,1020.62
2018-06-22T02:26:43.012Z,1020.66
2018-06-22T02:27:43.004Z,1020.73
2018-06-22T02:28:42.981Z,1020.74
2018-06-22T02:29:42.960Z,1020.73
2018-06-22T02:30:42.940Z,1020.69
2018-06-22T02:31:42.940Z,1020.67
2018-06-22T02:32:42.911Z,1020.65
2018-06-22T02:33:42.939Z,1020.66
2018-06-22T02:34:42.879Z,1020.65
2018-06-22T02:35:42.889Z,1020.57
2018-06-22T02:36:42.851Z,1020.57
2018-06-22T02:37:42.829Z,1020.60
2018-06-22T02:38:42.807Z,1020.60
2018-06-22T02:39:42.946Z,1020.52
2018-06-22T02:40:42.788Z,1020.63
2018-06-22T02:41:42.763Z,1020.64
2018-06-22T02:42:42.746Z,1020.66
2018-06-22T02:43:42.762Z,1020.62
2018-06-22T02:44:42.747Z,1020.67
2018-06-22T02:45:42.697Z,1020.64
2018-06-22T02:46:42.692Z,1020.65
2018-06-22T02:47:42.666Z,1020.71
2018-06-22T02:48:42.661Z,1020.65
2018-06-22T02:49:42.628Z,1020.58
2018-06-22T02:50:42.655Z,1020.65
2018-06-22T02:51:42.613Z,1020.65
2018-06-22T02:52:42.596Z,1020.67
2018-06-22T02:53:42.565Z,1020.70
2018-06-22T02:54:42.579Z,1020.63
2018-06-22T02:55:42.555Z,1020.62
2018-06-22T02:56:42.534Z,1020.57
2018-06-22T02:57:42.504Z,1020.58
2018-06-22T02:58:42.485Z,1020.56
2018-06-22T02:59:42.498Z,1020.58
2018-06-22T03:00:42.450Z,1020.61
2018-06-22T03:01:42.431Z,1020.61
2018-06-22T03:02:42.436Z,1020.64
2018-06-22T03:03:42.400Z,1020.64
2018-06-22T03:04:42.385Z,1020.63
2018-06-22T03:05:42.378Z,1020.67
2018-06-22T03:06:42.368Z,1020.67
2018-06-22T03:07:42.335Z,1020.68
2018-06-22T03:08:42.342Z,1020.64
2018-06-22T03:09:42.299Z,1020.69
2018-06-22T03:10:42.313Z,1020.64
2018-06-22T03:11:42.265Z,1020.61
2018-06-22T03:12:42.275Z,1020.62
2018-06-22T03:13:42.235Z,1020.62
2018-06-22T03:14:42.223Z,1020.67
2018-06-22T03:15:42.224Z,1020.66
2018-06-22T03:16:42.194Z,1020.69
2018-06-22T03:17:42.189Z,1020.73
2018-06-22T03:18:42.151Z,1020.68
2018-06-22T03:19:42.134Z,1020.63
2018-06-22T03:20:42.130Z,1020.63
2018-06-22T03:21:42.106Z,1020.61
2018-06-22T03:22:42.090Z,1020.65
2018-06-22T03:24:03.089Z,1020.67
2018-06-22T03:24:42.070Z,1020.68
2018-06-22T03:25:42.052Z,1020.64
2018-06-22T03:26:42.013Z,1020.65
2018-06-22T03:27:42.002Z,1020.62
2018-06-22T03:28:42.024Z,1020.68
2018-06-22T03:29:41.983Z,1020.64
2018-06-22T03:30:41.967Z,1020.68
2018-06-22T03:31:41.946Z,1020.71
2018-06-22T03:32:41.921Z,1020.65
2018-06-22T03:33:41.904Z,1020.65
2018-06-22T03:34:41.907Z,1020.66
2018-06-22T03:35:41.913Z,1020.62
2018-06-22T03:36:41.863Z,1020.67
2018-06-22T03:37:41.840Z,1020.64
2018-06-22T03:38:41.821Z,1020.58
2018-06-22T03:39:41.804Z,1020.55
2018-06-22T03:40:41.787Z,1020.60
2018-06-22T03:41:41.795Z,1020.56
2018-06-22T03:42:41.757Z,1020.55
2018-06-22T03:43:41.742Z,1020.56
2018-06-22T03:44:41.736Z,1020.59
2018-06-22T03:45:41.701Z,1020.50
2018-06-22T03:46:41.707Z,1020.54
2018-06-22T03:47:41.669Z,1020.54
2018-06-22T03:48:41.843Z,1020.58
2018-06-22T03:49:41.639Z,1020.58
2018-06-22T03:50:41.622Z,1020.64
2018-06-22T03:51:41.600Z,1020.64
2018-06-22T03:52:41.602Z,1020.57
2018-06-22T03:53:41.573Z,1020.56
2018-06-22T03:54:41.556Z,1020.63
2018-06-22T03:55:41.536Z,1020.53
2018-06-22T03:56:41.537Z,1020.54
2018-06-22T03:57:41.525Z,1020.54
2018-06-22T03:58:41.504Z,1020.52
2018-06-22T03:59:41.472Z,1020.56
2018-06-22T04:00:41.462Z,1020.54
2018-06-22T04:01:41.441Z,1020.58
2018-06-22T04:02:41.446Z,1020.60
2018-06-22T04:03:41.437Z,1020.57
2018-06-22T04:04:41.400Z,1020.60
2018-06-22T04:05:41.375Z,1020.59
2018-06-22T04:06:41.366Z,1020.58
2018-06-22T04:07:41.346Z,1020.54
2018-06-22T04:08:41.342Z,1020.50
2018-06-22T04:09:41.319Z,1020.51
2018-06-22T04:10:41.293Z,1020.50
2018-06-22T04:11:41.278Z,1020.45
2018-06-22T04:12:41.262Z,1020.49
2018-06-22T04:13:41.261Z,1020.57
2018-06-22T04:14:41.225Z,1020.58
2018-06-22T04:15:41.225Z,1020.59
2018-06-22T04:16:41.202Z,1020.57
2018-06-22T04:17:41.182Z,1020.55
2018-06-22T04:18:41.185Z,1020.50
2018-06-22T04:19:41.144Z,1020.41
2018-06-22T04:20:43.081Z,1020.34
2018-06-22T04:21:41.127Z,1020.36
2018-06-22T04:22:41.105Z,1020.44
2018-06-22T04:23:41.099Z,1020.45
2018-06-22T04:24:41.083Z,1020.50
2018-06-22T04:25:41.065Z,1020.49
2018-06-22T04:26:41.035Z,1020.44
2018-06-22T04:27:41.009Z,1020.47
2018-06-22T04:28:41.006Z,1020.43
2018-06-22T04:29:40.978Z,1020.46
2018-06-22T04:30:40.992Z,1020.46
2018-06-22T04:31:40.949Z,1020.43
2018-06-22T04:32:40.930Z,1020.37
2018-06-22T04:33:40.913Z,1020.37
2018-06-22T04:34:40.897Z,1020.39
2018-06-22T04:35:40.902Z,1020.30
2018-06-22T04:36:40.869Z,1020.28
2018-06-22T04:37:40.846Z,1020.33
2018-06-22T04:38:40.856Z,1020.30
2018-06-22T04:39:40.827Z,1020.28
2018-06-22T04:40:40.826Z,1020.33
2018-06-22T04:41:40.800Z,1020.35
2018-06-22T04:42:40.762Z,1020.38
2018-06-22T04:43:40.746Z,1020.41
2018-06-22T04:44:40.732Z,1020.37
2018-06-22T04:45:40.720Z,1020.40
2018-06-22T04:46:40.698Z,1020.46
2018-06-22T04:47:40.758Z,1020.51
2018-06-22T04:48:40.691Z,1020.43
2018-06-22T04:49:40.653Z,1020.43
2018-06-22T04:50:40.640Z,1020.42
2018-06-22T04:51:40.616Z,1020.40
2018-06-22T04:52:40.619Z,1020.47
2018-06-22T04:53:40.586Z,1020.45
2018-06-22T04:54:40.570Z,1020.48
2018-06-22T04:55:40.553Z,1020.52
2018-06-22T04:56:40.538Z,1020.51
2018-06-22T04:57:40.557Z,1020.47
2018-06-22T04:58:40.509Z,1020.49
2018-06-22T04:59:40.485Z,1020.48
2018-06-22T05:00:40.502Z,1020.43
2018-06-22T05:01:40.479Z,1020.46
2018-06-22T05:02:40.436Z,1020.45
2018-06-22T05:04:03.808Z,1020.46
2018-06-22T05:04:43.237Z,1020.44
2018-06-22T05:05:42.198Z,1020.44
2018-06-22T05:07:41.372Z,1020.45
2018-06-22T05:09:01.363Z,1020.52
2018-06-22T05:09:44.528Z,1020.53
2018-06-22T05:10:40.360Z,1020.54
2018-06-22T05:11:40.328Z,1020.55
2018-06-22T05:12:40.286Z,1020.53
2018-06-22T05:13:40.323Z,1020.54
2018-06-22T05:14:40.270Z,1020.50
2018-06-22T05:15:52.766Z,1020.49
2018-06-22T05:16:44.526Z,1020.55
2018-06-22T05:17:42.518Z,1020.49
2018-06-22T05:18:40.329Z,1020.55
2018-06-22T05:19:41.020Z,1020.55
2018-06-22T05:20:40.303Z,1020.63
2018-06-22T05:21:46.571Z,1020.61
2018-06-22T05:22:44.093Z,1020.58
2018-06-22T05:23:41.082Z,1020.72
2018-06-22T05:25:42.017Z,1020.66
2018-06-22T05:53:42.189Z,1020.66
2018-06-22T05:54:42.365Z,1020.70
2018-06-22T05:55:42.165Z,1020.79
2018-06-22T05:56:42.197Z,1020.75
2018-06-22T05:57:42.127Z,1020.74
2018-06-22T05:58:48.871Z,1020.72
2018-06-22T05:59:42.085Z,1020.74
2018-06-22T06:00:42.062Z,1020.68
2018-06-22T06:01:42.043Z,1020.72
2018-06-22T06:02:42.030Z,1020.78
2018-06-22T06:03:42.018Z,1020.74
2018-06-22T06:04:42.009Z,1020.76
2018-06-22T06:05:41.985Z,1020.80
2018-06-22T06:06:42.124Z,1020.81
2018-06-22T06:07:41.943Z,1020.83
2018-06-22T06:08:41.946Z,1020.82
2018-06-22T06:09:41.920Z,1020.85
2018-06-22T06:10:42.066Z,1020.88
2018-06-22T06:11:42.007Z,1020.87
2018-06-22T06:12:42.043Z,1020.88
2018-06-22T06:13:41.887Z,1020.92
2018-06-22T06:14:42.870Z,1020.91
2018-06-22T06:15:41.845Z,1020.93
2018-06-22T06:16:43.790Z,1020.86
2018-06-22T06:17:42.387Z,1020.91
2018-06-22T06:18:41.793Z,1020.86
2018-06-22T06:19:52.792Z,1020.92
2018-06-22T06:20:43.542Z,1020.90
2018-06-22T06:21:51.789Z,1020.91
2018-06-22T06:23:00.296Z,1020.88
2018-06-22T06:23:41.780Z,1020.83
2018-06-22T06:24:44.384Z,1020.82
2018-06-22T06:25:42.380Z,1020.88
2018-06-22T06:26:41.701Z,1020.85
2018-06-22T06:27:41.764Z,1020.82
2018-06-22T06:28:43.844Z,1020.88
2018-06-22T06:29:45.512Z,1020.79
2018-06-22T06:30:41.608Z,1020.88
2018-06-22T06:31:42.464Z,1020.79
2018-06-22T06:32:41.568Z,1020.87
2018-06-22T06:33:41.647Z,1020.80
2018-06-22T06:34:42.292Z,1020.90
2018-06-22T06:35:41.542Z,1020.90
2018-06-22T06:36:41.524Z,1020.88
2018-06-22T06:37:43.815Z,1020.80
2018-06-22T06:38:41.544Z,1020.89
2018-06-22T06:39:41.477Z,1020.88
2018-06-22T06:40:41.492Z,1020.94
2018-06-22T06:41:41.482Z,1020.97
2018-06-22T06:42:41.483Z,1020.93
2018-06-22T06:43:41.486Z,1020.88
2018-06-22T06:44:41.425Z,1020.95
2018-06-22T06:45:41.366Z,1021.00
2018-06-22T06:46:41.375Z,1021.00
2018-06-22T06:47:41.336Z,1021.01
2018-06-22T06:48:41.426Z,1020.98
2018-06-22T06:49:41.395Z,1021.01
2018-06-22T06:50:41.286Z,1020.98
2018-06-22T06:51:41.294Z,1020.98
2018-06-22T06:52:42.797Z,1021.02
2018-06-22T06:53:43.823Z,1020.97
2018-06-22T06:54:42.797Z,1021.05
2018-06-22T06:55:41.800Z,1021.08
2018-06-22T06:56:42.132Z,1021.01
2018-06-22T06:57:41.250Z,1020.97
2018-06-22T06:58:41.163Z,1021.01
2018-06-22T06:59:41.670Z,1021.10
2018-06-22T07:00:41.221Z,1021.08
2018-06-22T07:01:43.031Z,1021.09
2018-06-22T07:02:41.110Z,1021.04
2018-06-22T07:03:41.135Z,1021.13
2018-06-22T07:04:41.157Z,1021.13
2018-06-22T07:05:41.106Z,1021.11
2018-06-22T07:06:41.056Z,1021.18
2018-06-22T07:07:41.054Z,1021.15
2018-06-22T07:08:42.801Z,1021.13
2018-06-22T07:09:41.032Z,1021.15
2018-06-22T07:10:41.024Z,1021.15
2018-06-22T07:11:40.983Z,1021.13
2018-06-22T07:12:40.958Z,1021.14
2018-06-22T07:13:40.960Z,1021.22
2018-06-22T07:14:40.977Z,1021.22
2018-06-22T07:15:40.931Z,1021.21
2018-06-22T07:16:40.960Z,1021.19
2018-06-22T07:17:40.949Z,1021.24
2018-06-22T07:18:40.950Z,1021.25
2018-06-22T07:19:40.893Z,1021.23
2018-06-22T07:20:40.853Z,1021.23
2018-06-22T07:21:40.842Z,1021.23
2018-06-22T07:22:40.832Z,1021.27
2018-06-22T07:23:40.797Z,1021.26
2018-06-22T07:24:40.836Z,1021.29
2018-06-22T07:25:40.773Z,1021.34
2018-06-22T07:26:40.797Z,1021.30
2018-06-22T07:27:40.733Z,1021.36
2018-06-22T07:28:40.724Z,1021.33
2018-06-22T07:29:40.727Z,1021.33
2018-06-22T07:30:40.737Z,1021.33
2018-06-22T07:31:40.723Z,1021.27
2018-06-22T07:32:42.805Z,1021.32
2018-06-22T07:33:40.690Z,1021.26
2018-06-22T07:34:40.651Z,1021.34
2018-06-22T07:35:40.612Z,1021.37
2018-06-22T07:36:40.631Z,1021.34
2018-06-22T07:37:40.603Z,1021.32
2018-06-22T07:38:40.607Z,1021.32
2018-06-22T07:39:40.607Z,1021.33
2018-06-22T07:40:40.581Z,1021.33
2018-06-22T07:41:40.551Z,1021.42
2018-06-22T07:42:40.541Z,1021.39
2018-06-22T07:43:40.532Z,1021.40
2018-06-22T07:44:40.514Z,1021.34
2018-06-22T07:45:40.476Z,1021.38
2018-06-22T07:46:40.462Z,1021.39
2018-06-22T07:47:40.473Z,1021.37
2018-06-22T07:48:40.451Z,1021.36
2018-06-22T07:49:40.421Z,1021.38
2018-06-22T07:50:40.393Z,1021.41
2018-06-22T07:51:40.387Z,1021.46
2018-06-22T07:52:40.392Z,1021.39
2018-06-22T07:53:40.356Z,1021.44
2018-06-22T07:54:40.338Z,1021.47
2018-06-22T07:55:40.347Z,1021.49
2018-06-22T07:56:40.316Z,1021.46
2018-06-22T07:57:40.297Z,1021.46
2018-06-22T07:58:40.312Z,1021.52
2018-06-22T07:59:40.269Z,1021.48
2018-06-22T08:00:40.256Z,1021.51
2018-06-22T08:01:40.240Z,1021.44
2018-06-22T08:02:40.227Z,1021.50
2018-06-22T08:03:40.217Z,1021.53
2018-06-22T08:04:40.189Z,1021.51
2018-06-22T08:05:40.192Z,1021.51
2018-06-22T08:06:40.164Z,1021.49
2018-06-22T08:07:40.146Z,1021.53
2018-06-22T08:08:40.150Z,1021.50
2018-06-22T08:09:40.116Z,1021.54
2018-06-22T08:10:40.103Z,1021.52
2018-06-22T08:11:40.092Z,1021.52
2018-06-22T08:12:40.071Z,1021.59
2018-06-22T08:13:40.092Z,1021.62
2018-06-22T08:14:40.049Z,1021.63
2018-06-22T08:15:40.031Z,1021.61
2018-06-22T08:16:40.021Z,1021.60
2018-06-22T08:17:40.065Z,1021.69
2018-06-22T08:18:40.004Z,1021.62
2018-06-22T08:19:39.976Z,1021.67
2018-06-22T08:20:39.965Z,1021.73
2018-06-22T08:21:39.948Z,1021.72
2018-06-22T08:22:39.945Z,1021.72
2018-06-22T08:23:40.011Z,1021.72
2018-06-22T08:24:39.901Z,1021.74
2018-06-22T08:25:39.900Z,1021.76
2018-06-22T08:26:39.875Z,1021.76
2018-06-22T08:27:39.862Z,1021.77
2018-06-22T08:28:39.852Z,1021.81
2018-06-22T08:29:39.848Z,1021.80
2018-06-22T08:30:39.845Z,1021.77
2018-06-22T08:31:39.807Z,1021.81
2018-06-22T08:32:39.795Z,1021.83
2018-06-22T08:33:39.775Z,1021.78
2018-06-22T08:34:39.757Z,1021.83
2018-06-22T08:35:39.765Z,1021.82
2018-06-22T08:36:39.733Z,1021.85
2018-06-22T08:37:39.717Z,1021.81
2018-06-22T08:38:39.701Z,1021.85
2018-06-22T08:39:39.690Z,1021.81
2018-06-22T08:40:39.695Z,1021.82
2018-06-22T08:41:39.750Z,1021.84
2018-06-22T08:42:39.643Z,1021.88
2018-06-22T08:43:39.633Z,1021.91
2018-06-22T08:44:39.616Z,1021.93
2018-06-22T08:45:39.619Z,1021.90
2018-06-22T08:46:39.583Z,1021.95
2018-06-22T08:47:39.582Z,1021.95
2018-06-22T08:48:39.563Z,1021.92
2018-06-22T08:49:39.542Z,1021.98
2018-06-22T08:50:39.527Z,1021.94
2018-06-22T08:51:39.514Z,1021.95
2018-06-22T08:52:39.519Z,1021.97
2018-06-22T08:53:39.488Z,1021.95
2018-06-22T08:54:39.483Z,1021.99
2018-06-22T08:55:39.505Z,1021.90
2018-06-22T08:56:39.461Z,1021.98
2018-06-22T08:57:39.430Z,1021.89
2018-06-22T08:58:39.431Z,1021.97
2018-06-22T08:59:39.400Z,1021.94
2018-06-22T09:00:39.387Z,1021.95
2018-06-22T09:01:39.373Z,1021.93
2018-06-22T09:02:39.379Z,1021.99
2018-06-22T09:03:39.361Z,1021.91
2018-06-22T09:04:39.331Z,1022.02
2018-06-22T09:05:39.318Z,1021.99
2018-06-22T09:06:39.304Z,1022.04
2018-06-22T09:07:39.288Z,1021.98
2018-06-22T09:08:39.280Z,1022.04
2018-06-22T09:09:39.279Z,1022.06
2018-06-22T09:10:39.259Z,1021.98
2018-06-22T09:11:39.244Z,1022.03
2018-06-22T09:12:39.266Z,1022.01
2018-06-22T09:13:39.218Z,1022.02
2018-06-22T09:14:39.223Z,1022.09
2018-06-22T09:15:39.179Z,1022.14
2018-06-22T09:16:39.164Z,1022.09
2018-06-22T09:17:39.151Z,1022.08
2018-06-22T09:18:39.137Z,1022.08
2018-06-22T09:19:39.175Z,1022.03
2018-06-22T09:20:39.133Z,1022.15
2018-06-22T09:21:39.109Z,1022.14
2018-06-22T09:22:39.080Z,1022.09
2018-06-22T09:23:39.071Z,1022.05
2018-06-22T09:24:39.064Z,1022.12
2018-06-22T09:25:39.054Z,1021.99
2018-06-22T09:26:39.036Z,1022.04
2018-06-22T09:27:39.011Z,1022.13
2018-06-22T09:28:39.010Z,1022.10
2018-06-22T09:29:38.986Z,1022.11
2018-06-22T09:30:38.978Z,1022.05
2018-06-22T09:31:38.964Z,1022.06
2018-06-22T09:32:38.964Z,1022.13
2018-06-22T09:33:38.946Z,1022.07
2018-06-22T09:34:38.923Z,1022.08
2018-06-22T09:35:38.920Z,1022.17
2018-06-22T09:36:38.910Z,1022.10
2018-06-22T09:37:38.875Z,1022.14
2018-06-22T09:38:38.862Z,1022.17
2018-06-22T09:39:38.842Z,1022.17
2018-06-22T09:40:38.833Z,1022.17
2018-06-22T09:41:38.840Z,1022.15
2018-06-22T09:42:38.873Z,1022.09
2018-06-22T09:43:38.788Z,1022.14
2018-06-22T09:44:38.783Z,1022.10
2018-06-22T09:45:38.779Z,1022.23
2018-06-22T09:46:38.744Z,1022.17
2018-06-22T09:47:38.738Z,1022.20
2018-06-22T09:48:38.721Z,1022.16
2018-06-22T09:49:38.719Z,1022.21
2018-06-22T09:50:38.696Z,1022.16
2018-06-22T09:51:38.676Z,1022.21
2018-06-22T09:52:38.664Z,1022.20
2018-06-22T09:53:38.648Z,1022.24
2018-06-22T09:54:38.651Z,1022.21
2018-06-22T09:55:38.636Z,1022.21
2018-06-22T09:56:38.605Z,1022.29
2018-06-22T09:57:38.593Z,1022.27
2018-06-22T09:58:38.580Z,1022.28
2018-06-22T09:59:38.573Z,1022.28
2018-06-22T10:00:38.545Z,1022.32
2018-06-22T10:01:38.537Z,1022.23
2018-06-22T10:02:38.614Z,1022.81
2018-06-22T10:03:38.502Z,1022.48
2018-06-22T10:04:38.529Z,1022.28
2018-06-22T10:05:38.473Z,1022.34
2018-06-22T10:06:38.463Z,1022.48
2018-06-22T10:07:38.454Z,1022.34
2018-06-22T10:08:38.437Z,1022.45
2018-06-22T10:09:38.423Z,1022.24
2018-06-22T10:10:38.422Z,1022.34
2018-06-22T10:11:38.399Z,1022.67
2018-06-22T10:12:38.387Z,1022.77
2018-06-22T10:13:38.389Z,1022.72
2018-06-22T10:14:38.364Z,1022.54
2018-06-22T10:15:38.365Z,1022.36
2018-06-22T10:16:38.336Z,1022.94
2018-06-22T10:17:38.347Z,1022.57
2018-06-22T10:18:38.329Z,1022.81
2018-06-22T10:19:38.359Z,1022.59
2018-06-22T10:20:38.295Z,1022.52
2018-06-22T10:21:38.281Z,1022.42
2018-06-22T10:22:38.290Z,1022.41
2018-06-22T10:23:38.265Z,1022.27
2018-06-22T10:24:38.260Z,1022.28
2018-06-22T10:25:38.251Z,1022.33
2018-06-22T10:26:38.249Z,1022.28
2018-06-22T10:27:38.227Z,1022.30
2018-06-22T10:28:38.218Z,1022.28
2018-06-22T10:29:38.209Z,1022.34
2018-06-22T10:30:38.195Z,1022.32
2018-06-22T10:31:38.202Z,1022.35
2018-06-22T10:32:38.173Z,1022.30
2018-06-22T10:33:38.170Z,1022.38
2018-06-22T10:34:38.174Z,1022.34
2018-06-22T10:35:38.157Z,1022.41
2018-06-22T10:36:38.181Z,1022.46
2018-06-22T10:37:38.134Z,1022.41
2018-06-22T10:38:38.145Z,1022.41
2018-06-22T10:39:38.106Z,1022.32
2018-06-22T10:40:38.105Z,1022.40
2018-06-22T10:41:38.089Z,1022.58
2018-06-22T10:42:38.069Z,1022.43
2018-06-22T10:43:38.080Z,1022.45
2018-06-22T10:44:38.051Z,1022.43
2018-06-22T10:45:38.091Z,1022.50
2018-06-22T10:46:38.030Z,1022.38
2018-06-22T10:47:38.033Z,1022.40
2018-06-22T10:48:38.025Z,1022.42
2018-06-22T10:49:38.016Z,1022.42
2018-06-22T10:50:38.006Z,1022.40
2018-06-22T10:51:38.072Z,1022.36
2018-06-22T10:52:38.075Z,1022.34
2018-06-22T10:53:37.959Z,1022.32
2018-06-22T10:54:37.949Z,1022.35
2018-06-22T10:55:37.944Z,1022.31
2018-06-22T10:56:37.924Z,1022.30
2018-06-22T10:57:37.935Z,1022.29
2018-06-22T10:58:37.904Z,1022.30
2018-06-22T10:59:37.966Z,1022.32
2018-06-22T11:00:37.903Z,1022.28
2018-06-22T11:01:37.882Z,1022.28
2018-06-22T11:02:37.869Z,1022.35
2018-06-22T11:03:37.878Z,1022.31
2018-06-22T11:04:37.846Z,1022.36
2018-06-22T11:05:37.910Z,1022.46
2018-06-22T11:06:37.829Z,1022.45
2018-06-22T11:07:37.813Z,1022.43
2018-06-22T11:08:37.809Z,1022.46
2018-06-22T11:09:37.808Z,1022.41
2018-06-22T11:10:37.785Z,1022.44
2018-06-22T11:11:37.773Z,1022.44
2018-06-22T11:12:37.762Z,1022.41
2018-06-22T11:13:37.749Z,1022.37
2018-06-22T11:14:37.733Z,1022.41
2018-06-22T11:15:37.737Z,1022.41
2018-06-22T11:16:37.778Z,1022.41
2018-06-22T11:17:37.699Z,1022.41
2018-06-22T11:18:37.708Z,1022.40
2018-06-22T11:19:37.673Z,1022.43
2018-06-22T11:20:37.677Z,1022.59
2018-06-22T11:21:37.651Z,1022.62
2018-06-22T11:22:37.635Z,1022.69
2018-06-22T11:23:37.620Z,1022.55
2018-06-22T11:24:37.653Z,1022.55
2018-06-22T11:25:37.619Z,1022.49
2018-06-22T11:26:37.586Z,1022.47
2018-06-22T11:27:37.588Z,1022.37
2018-06-22T11:28:37.567Z,1022.41
2018-06-22T11:29:37.551Z,1022.42
2018-06-22T11:30:37.539Z,1022.48
2018-06-22T11:31:37.565Z,1022.43
2018-06-22T11:32:37.522Z,1022.42
2018-06-22T11:33:37.513Z,1022.47
2018-06-22T11:34:37.500Z,1022.44
2018-06-22T11:35:37.493Z,1022.47
2018-06-22T11:36:37.494Z,1022.51
2018-06-22T11:37:37.475Z,1022.43
2018-06-22T11:38:37.457Z,1022.43
2018-06-22T11:39:37.453Z,1022.41
2018-06-22T11:40:37.438Z,1022.46
2018-06-22T11:41:37.440Z,1022.39
2018-06-22T11:42:37.418Z,1022.47
2018-06-22T11:43:37.402Z,1022.47
2018-06-22T11:44:37.385Z,1022.43
2018-06-22T11:45:37.379Z,1022.43
2018-06-22T11:46:37.396Z,1022.45
2018-06-22T11:47:37.358Z,1022.47
2018-06-22T11:48:37.352Z,1022.42
2018-06-22T11:49:37.337Z,1022.48
2018-06-22T11:50:37.324Z,1022.52
2018-06-22T11:51:37.337Z,1022.55
2018-06-22T11:52:37.305Z,1022.43
2018-06-22T11:53:37.290Z,1022.60
2018-06-22T11:54:37.279Z,1022.50
2018-06-22T11:55:37.270Z,1022.51
2018-06-22T11:56:37.259Z,1022.46
2018-06-22T11:57:37.267Z,1022.41
2018-06-22T11:58:37.237Z,1022.45
2018-06-22T11:59:37.223Z,1022.48
2018-06-22T12:00:37.216Z,1022.52
2018-06-22T12:01:37.256Z,1022.55
2018-06-22T12:02:37.196Z,1022.50
2018-06-22T12:03:37.200Z,1022.49
2018-06-22T12:04:37.201Z,1022.53
2018-06-22T12:05:37.159Z,1022.44
2018-06-22T12:06:37.153Z,1022.54
2018-06-22T12:07:37.136Z,1022.51
2018-06-22T12:08:58.138Z,1022.47
2018-06-22T12:09:37.117Z,1022.50
2018-06-22T12:10:37.103Z,1022.37
2018-06-22T12:11:37.093Z,1022.41
2018-06-22T12:12:37.101Z,1022.42
2018-06-22T12:13:37.089Z,1022.39
2018-06-22T12:14:37.068Z,1022.44
2018-06-22T12:15:37.051Z,1022.50
2018-06-22T12:16:37.035Z,1022.51
2018-06-22T12:17:37.035Z,1022.57
2018-06-22T12:18:37.030Z,1022.55
2018-06-22T12:19:37.008Z,1022.56
2018-06-22T12:20:36.994Z,1022.55
2018-06-22T12:21:36.980Z,1022.65
2018-06-22T12:22:36.972Z,1022.66
2018-06-22T12:23:36.973Z,1022.68
2018-06-22T12:24:36.944Z,1022.63
2018-06-22T12:25:36.936Z,1022.66
2018-06-22T12:26:36.920Z,1022.66
2018-06-22T12:27:36.979Z,1022.72
2018-06-22T12:28:36.914Z,1022.71
2018-06-22T12:29:36.908Z,1022.73
2018-06-22T12:30:36.868Z,1022.68
2018-06-22T12:31:36.857Z,1022.70
2018-06-22T12:32:36.843Z,1022.67
2018-06-22T12:33:36.849Z,1022.68
2018-06-22T12:34:36.822Z,1022.68